.
WxDataArchive / Data Records for 2014-12-26
2014-12-25 December 2014 2014-12-27

Data Records for Friday, 26 December 2014

Time	Temp	Chill	HIndex	Humid	Dewpt	 Wind 	HiWind	WindDir	Rain 	Barom
-----	----	-----	------	-----	-----	------	------	-------	-----	-----
00:00	34.1	34.1	34.1	87	30.6	0	1	112	0.00	30.116 
00:05	34.1	34.1	34.1	87	30.6	0	1	112	0.00	30.116 
00:10	34.1	34.1	34.1	87	30.6	0	2	112	0.00	30.116 
00:15	34.1	34.1	34.1	87	30.6	0	2	112	0.00	30.113 
00:20	34.0	34.0	34.0	87	30.5	0	1	112	0.00	30.113 
00:25	33.8	33.8	33.8	87	30.3	0	1	112	0.00	30.113 
00:30	33.7	33.7	33.7	87	30.3	0	1	112	0.00	30.125 
00:35	33.7	33.7	33.7	87	30.3	0	1	112	0.00	30.125 
00:40	33.5	33.5	33.5	87	30.1	0	0	---	0.00	30.125 
00:45	33.5	33.5	33.5	87	30.1	0	1	112	0.00	30.127 
00:50	33.4	33.4	33.4	87	30.0	0	2	225	0.00	30.127 
00:55	33.4	33.4	33.4	87	30.0	0	1	225	0.00	30.127 
01:00	33.2	33.2	33.2	88	30.0	0	2	202	0.00	30.122 
01:05	33.2	33.2	33.2	88	30.0	0	0	---	0.00	30.122 
01:10	33.1	33.1	33.1	88	29.9	0	1	202	0.00	30.122 
01:15	33.1	33.1	33.1	88	29.9	0	1	202	0.00	30.126 
01:20	32.9	32.9	32.9	88	29.7	0	1	202	0.00	30.126 
01:25	32.8	32.8	32.8	88	29.6	0	1	202	0.00	30.126 
01:30	32.8	32.8	32.8	88	29.6	0	1	202	0.00	30.127 
01:35	32.7	32.7	32.7	88	29.5	0	1	202	0.00	30.127 
01:40	32.7	32.7	32.7	88	29.5	0	0	---	0.00	30.127 
01:45	32.5	32.5	32.5	88	29.3	0	0	---	0.00	30.129 
01:50	32.2	32.2	32.2	88	29.1	0	0	---	0.00	30.129 
01:55	32.1	32.1	32.1	88	29.0	0	0	---	0.00	30.129 
02:00	31.9	31.9	31.9	88	28.8	0	0	---	0.00	30.129 
02:05	31.9	31.9	31.9	89	29.0	0	0	---	0.00	30.129 
02:10	31.8	31.8	31.8	89	28.9	0	0	---	0.00	30.129 
02:15	31.8	31.8	31.8	89	28.9	0	0	---	0.00	30.133 
02:20	31.6	31.6	31.6	89	28.7	0	1	202	0.00	30.133 
02:25	31.8	31.8	31.8	89	28.9	0	1	202	0.00	30.133 
02:30	31.8	31.8	31.8	90	29.2	0	0	---	0.00	30.138 
02:35	31.8	31.8	31.8	90	29.2	0	0	---	0.00	30.138 
02:40	31.8	31.8	31.8	90	29.2	0	1	202	0.00	30.138 
02:45	31.8	31.8	31.8	90	29.2	0	0	---	0.00	30.140 
02:50	31.9	31.9	31.9	90	29.3	0	1	202	0.00	30.140 
02:55	31.9	31.9	31.9	90	29.3	0	1	202	0.00	30.140 
03:00	32.1	32.1	32.1	90	29.5	0	1	202	0.00	30.144 
03:05	32.1	32.1	32.1	90	29.5	0	0	---	0.00	30.144 
03:10	32.1	32.1	32.1	90	29.5	0	0	---	0.00	30.144 
03:15	31.9	31.9	31.9	90	29.3	0	0	---	0.00	30.145 
03:20	31.9	31.9	31.9	90	29.3	0	1	202	0.00	30.145 
03:25	31.9	31.9	31.9	90	29.3	0	0	---	0.00	30.145 
03:30	31.9	31.9	31.9	90	29.3	0	1	202	0.00	30.142 
03:35	31.9	31.9	31.9	90	29.3	0	1	202	0.00	30.142 
03:40	31.9	31.9	31.9	90	29.3	0	0	---	0.00	30.142 
03:45	31.9	31.9	31.9	90	29.3	0	0	---	0.00	30.129 
03:50	31.8	31.8	31.8	90	29.2	0	0	---	0.00	30.129 
03:55	31.8	31.8	31.8	90	29.2	0	1	202	0.00	30.129 
04:00	31.8	31.8	31.8	90	29.2	0	0	---	0.00	30.130 
04:05	31.6	31.6	31.6	91	29.3	0	1	202	0.00	30.130 
04:10	31.8	31.8	31.8	91	29.5	0	1	202	0.00	30.130 
04:15	31.9	31.9	31.9	91	29.6	0	1	202	0.00	30.127 
04:20	31.9	31.9	31.9	91	29.6	0	2	202	0.00	30.127 
04:25	31.9	31.9	31.9	91	29.6	0	1	202	0.00	30.127 
04:30	32.2	32.2	32.2	91	29.9	0	2	202	0.00	30.122 
04:35	32.2	32.2	32.2	91	29.9	0	0	---	0.00	30.122 
04:40	32.2	32.2	32.2	91	29.9	0	1	202	0.00	30.122 
04:45	32.2	32.2	32.2	91	29.9	0	0	---	0.00	30.120 
04:50	32.2	32.2	32.2	91	29.9	0	1	202	0.00	30.120 
04:55	32.2	32.2	32.2	91	29.9	0	1	202	0.00	30.120 
05:00	32.2	32.2	32.2	91	29.9	0	1	202	0.00	30.117 
05:05	32.4	32.4	32.4	91	30.1	0	2	202	0.00	30.117 
05:10	32.5	32.5	32.5	91	30.2	0	2	202	0.00	30.117 
05:15	32.7	32.7	32.7	91	30.4	0	1	202	0.00	30.120 
05:20	32.8	32.8	32.8	91	30.5	0	3	22	0.00	30.120 
05:25	32.9	32.9	32.9	90	30.3	0	2	22	0.00	30.120 
05:30	32.9	32.9	32.9	90	30.3	0	2	22	0.00	30.116 
05:35	33.1	33.1	33.1	90	30.5	0	1	0	0.00	30.116 
05:40	33.2	33.2	33.2	90	30.6	0	2	0	0.00	30.116 
05:45	33.4	33.4	33.4	90	30.8	0	2	0	0.00	30.115 
05:50	33.4	33.4	33.4	90	30.8	0	1	0	0.00	30.115 
05:55	33.5	33.5	33.5	90	30.9	1	3	0	0.00	30.115 
06:00	33.5	33.5	33.5	89	30.6	0	2	45	0.00	30.114 
06:05	33.7	33.7	33.7	89	30.8	0	2	45	0.00	30.114 
06:10	33.7	33.7	33.7	89	30.8	0	2	45	0.00	30.114 
06:15	33.7	33.7	33.7	89	30.8	0	1	22	0.00	30.114 
06:20	33.8	33.8	33.8	89	30.9	0	1	22	0.00	30.114 
06:25	33.8	33.8	33.8	89	30.9	0	1	22	0.00	30.114 
06:30	33.8	33.8	33.8	89	30.9	0	2	22	0.00	30.115 
06:35	33.8	33.8	33.8	89	30.9	0	2	22	0.00	30.115 
06:40	33.8	33.8	33.8	89	30.9	0	2	22	0.00	30.115 
06:45	33.8	33.8	33.8	89	30.9	0	1	22	0.00	30.112 
06:50	33.7	33.7	33.7	88	30.5	0	1	22	0.00	30.112 
06:55	33.7	33.7	33.7	89	30.8	0	2	22	0.00	30.112 
07:00	33.8	33.8	33.8	89	30.9	0	2	22	0.00	30.115 
07:05	33.7	33.7	33.7	88	30.5	0	1	22	0.00	30.115 
07:10	33.7	33.7	33.7	88	30.5	0	2	22	0.00	30.115 
07:15	33.5	33.5	33.5	88	30.3	0	1	22	0.00	30.121 
07:20	33.5	33.5	33.5	89	30.6	0	1	22	0.00	30.121 
07:25	33.4	33.4	33.4	89	30.5	0	1	22	0.00	30.121 
07:30	33.4	33.4	33.4	89	30.5	0	1	22	0.00	30.127 
07:35	33.4	33.4	33.4	89	30.5	0	1	22	0.00	30.127 
07:40	33.2	33.2	33.2	89	30.3	0	1	22	0.00	30.127 
07:45	33.2	33.2	33.2	89	30.3	0	1	22	0.00	30.130 
07:50	33.2	33.2	33.2	89	30.3	0	1	22	0.00	30.130 
07:55	33.1	33.1	33.1	89	30.2	0	1	22	0.00	30.130 
08:00	33.1	33.1	33.1	89	30.2	0	0	---	0.00	30.130 
08:05	32.9	32.9	32.9	89	30.0	0	1	22	0.00	30.130 
08:10	32.9	32.9	32.9	89	30.0	0	1	22	0.00	30.130 
08:15	32.8	32.8	32.8	89	29.9	0	1	22	0.00	30.132 
08:20	32.8	32.8	32.8	89	29.9	0	1	22	0.00	30.132 
08:25	32.8	32.8	32.8	89	29.9	0	0	---	0.00	30.132 
08:30	32.8	32.8	32.8	90	30.2	0	0	---	0.00	30.130 
08:35	32.8	32.8	32.8	90	30.2	0	0	---	0.00	30.130 
08:40	32.8	32.8	32.8	90	30.2	0	0	---	0.00	30.130 
08:45	32.8	32.8	32.8	90	30.2	0	0	---	0.00	30.134 
08:50	32.9	32.9	32.9	90	30.3	0	0	---	0.00	30.134 
08:55	33.1	33.1	33.1	90	30.5	0	1	22	0.00	30.134 
09:00	33.4	33.4	33.4	90	30.8	0	1	22	0.00	30.133 
09:05	33.7	33.7	33.7	90	31.1	0	1	22	0.00	30.133 
09:10	34.0	34.0	34.0	90	31.4	0	3	22	0.00	30.133 
09:15	34.4	34.4	34.4	90	31.8	0	2	22	0.00	30.133 
09:20	34.7	34.7	34.7	89	31.8	0	2	22	0.00	30.133 
09:25	35.0	35.0	35.0	89	32.1	0	1	22	0.00	30.133 
09:30	35.3	35.3	35.3	89	32.4	0	1	22	0.00	30.135 
09:35	35.6	35.6	35.6	89	32.7	0	2	22	0.00	30.135 
09:40	35.9	35.9	35.9	88	32.7	0	2	22	0.00	30.135 
09:45	36.3	36.3	36.3	88	33.1	0	1	22	0.00	30.136 
09:50	36.6	36.6	36.6	87	33.1	0	2	22	0.00	30.136 
09:55	36.9	36.9	36.9	87	33.4	0	1	270	0.00	30.136 
10:00	37.2	37.2	37.2	87	33.7	0	1	270	0.00	30.142 
10:05	37.6	37.6	37.6	86	33.8	0	2	270	0.00	30.142 
10:10	37.9	37.9	37.9	85	33.8	0	2	270	0.00	30.142 
10:15	38.2	38.2	38.2	85	34.1	0	3	270	0.00	30.141 
10:20	38.5	38.5	38.5	84	34.1	0	3	248	0.00	30.141 
10:25	38.8	38.8	38.8	84	34.4	0	3	225	0.00	30.141 
10:30	39.2	39.2	39.2	83	34.5	0	1	225	0.00	30.143 
10:35	39.5	39.5	39.5	83	34.8	0	3	225	0.00	30.143 
10:40	39.6	39.6	39.6	82	34.6	1	6	248	0.00	30.143 
10:45	40.1	40.1	40.1	81	34.7	1	4	248	0.00	30.141 
10:50	40.3	40.3	40.3	81	34.9	1	3	248	0.00	30.141 
10:55	40.6	40.6	40.6	80	34.9	1	6	248	0.00	30.141 
11:00	41.1	41.1	41.1	80	35.4	0	3	68	0.00	30.139 
11:05	41.3	41.3	41.3	79	35.3	1	5	248	0.00	30.139 
11:10	41.6	41.6	41.6	78	35.3	0	3	248	0.00	30.139 
11:15	41.9	41.9	41.9	77	35.2	1	4	248	0.00	30.135 
11:20	42.2	42.2	42.2	77	35.5	0	3	292	0.00	30.135 
11:25	42.5	42.5	42.5	76	35.5	1	4	270	0.00	30.135 
11:30	42.8	42.8	42.8	76	35.8	1	3	270	0.00	30.123 
11:35	42.9	42.9	42.9	75	35.5	1	5	248	0.00	30.123 
11:40	43.2	43.2	43.2	75	35.8	1	5	248	0.00	30.123 
11:45	43.5	43.5	43.5	75	36.1	1	4	248	0.00	30.120 
11:50	43.8	43.8	43.8	74	36.1	1	3	248	0.00	30.120 
11:55	43.9	43.9	43.9	73	35.8	1	4	248	0.00	30.120 
12:00	44.1	44.1	44.1	73	36.0	1	5	270	0.00	30.111 
12:05	44.3	44.3	44.3	73	36.2	1	4	248	0.00	30.111 
12:10	44.5	44.5	44.5	73	36.4	1	5	248	0.00	30.111 
12:15	44.6	44.6	44.6	73	36.5	1	6	248	0.00	30.104 
12:20	44.6	44.6	44.6	73	36.5	1	5	270	0.00	30.104 
12:25	44.9	44.9	44.9	73	36.8	1	5	225	0.00	30.104 
12:30	45.2	45.2	45.2	72	36.7	1	4	248	0.00	30.101 
12:35	45.4	45.4	45.4	72	36.9	1	5	248	0.00	30.101 
12:40	45.7	45.7	45.7	72	37.2	1	4	270	0.00	30.101 
12:45	46.0	46.0	46.0	72	37.5	0	3	270	0.00	30.100 
12:50	46.2	46.2	46.2	71	37.3	1	4	248	0.00	30.100 
12:55	46.5	46.5	46.5	71	37.6	0	3	248	0.00	30.100 
13:00	46.7	46.7	46.7	70	37.4	1	5	248	0.00	30.095 
13:05	46.7	46.7	46.7	70	37.4	2	5	248	0.00	30.095 
13:10	46.8	46.8	46.8	70	37.5	2	6	248	0.00	30.095 
13:15	47.0	47.0	47.0	69	37.4	2	6	248	0.00	30.092 
13:20	47.0	47.0	47.0	69	37.4	2	5	248	0.00	30.092 
13:25	47.0	47.0	47.0	70	37.7	2	9	248	0.00	30.092 
13:30	47.3	47.3	47.3	70	38.0	1	6	248	0.00	30.087 
13:35	47.6	47.6	47.6	70	38.3	1	5	248	0.00	30.087 
13:40	47.9	47.9	47.9	69	38.2	1	6	248	0.00	30.087 
13:45	48.0	48.0	48.0	70	38.7	1	4	248	0.00	30.079 
13:50	48.0	48.0	48.0	69	38.3	1	5	270	0.00	30.079 
13:55	47.9	47.9	47.9	69	38.2	1	4	248	0.00	30.079 
14:00	47.9	47.9	47.9	70	38.6	1	3	248	0.00	30.076 
14:05	48.0	48.0	48.0	70	38.7	1	4	248	0.00	30.076 
14:10	48.2	48.2	48.2	69	38.5	2	6	248	0.00	30.076 
14:15	48.3	48.3	48.3	69	38.6	1	6	248	0.00	30.075 
14:20	48.5	48.5	48.5	69	38.8	3	9	248	0.00	30.075 
14:25	48.5	48.5	48.5	70	39.2	1	4	248	0.00	30.075 
14:30	48.6	48.6	48.6	70	39.3	1	5	248	0.00	30.079 
14:35	48.8	48.8	48.8	71	39.8	1	5	248	0.00	30.079 
14:40	48.8	48.8	48.8	69	39.1	2	5	248	0.00	30.079 
14:45	48.8	48.8	48.8	70	39.5	1	4	248	0.00	30.076 
14:50	48.8	48.8	48.8	70	39.5	1	4	248	0.00	30.076 
14:55	49.1	49.1	49.1	70	39.7	0	3	248	0.00	30.076 
15:00	49.1	49.1	49.1	69	39.4	1	5	248	0.00	30.070 
15:05	49.1	49.1	49.1	70	39.7	1	4	248	0.00	30.070 
15:10	49.1	49.1	49.1	70	39.7	0	2	248	0.00	30.070 
15:15	49.1	49.1	49.1	71	40.1	1	4	112	0.00	30.071 
15:20	48.8	48.8	48.8	70	39.5	1	5	248	0.00	30.071 
15:25	48.6	48.6	48.6	71	39.6	1	4	248	0.00	30.071 
15:30	48.5	48.5	48.5	71	39.5	0	3	248	0.00	30.072 
15:35	48.2	48.2	48.2	72	39.6	0	3	248	0.00	30.072 
15:40	48.0	48.0	48.0	73	39.8	0	2	248	0.00	30.072 
15:45	47.7	47.7	47.7	73	39.5	0	3	248	0.00	30.071 
15:50	47.6	47.6	47.6	74	39.7	0	1	248	0.00	30.071 
15:55	47.4	47.4	47.4	74	39.5	0	3	248	0.00	30.071 
16:00	47.3	47.3	47.3	75	39.8	0	4	248	0.00	30.080 
16:05	47.1	47.1	47.1	75	39.6	0	1	248	0.00	30.080 
16:10	47.0	47.0	47.0	76	39.8	0	1	248	0.00	30.080 
16:15	46.8	46.8	46.8	76	39.6	0	2	248	0.00	30.086 
16:20	46.8	46.8	46.8	76	39.6	0	2	248	0.00	30.086 
16:25	46.7	46.7	46.7	76	39.5	0	1	248	0.00	30.086 
16:30	46.5	46.5	46.5	77	39.7	0	1	248	0.00	30.088 
16:35	46.5	46.5	46.5	77	39.7	0	2	248	0.00	30.088 
16:40	46.4	46.4	46.4	77	39.6	0	2	248	0.00	30.088 
16:45	46.4	46.4	46.4	77	39.6	0	2	248	0.00	30.088 
16:50	46.4	46.4	46.4	77	39.6	0	1	248	0.00	30.088 
16:55	46.2	46.2	46.2	77	39.4	0	1	248	0.00	30.088 
17:00	46.2	46.2	46.2	77	39.4	0	1	248	0.00	30.089 
17:05	46.0	46.0	46.0	78	39.5	0	1	248	0.00	30.089 
17:10	45.8	45.8	45.8	78	39.3	0	1	248	0.00	30.089 
17:15	45.4	45.4	45.4	78	38.9	0	0	---	0.00	30.087 
17:20	45.1	45.1	45.1	79	39.0	0	0	---	0.00	30.087 
17:25	44.8	44.8	44.8	80	39.0	0	0	---	0.00	30.087 
17:30	44.6	44.6	44.6	80	38.8	0	1	248	0.00	30.090 
17:35	44.5	44.5	44.5	81	39.0	0	1	248	0.00	30.090 
17:40	44.3	44.3	44.3	81	38.8	0	0	---	0.00	30.090 
17:45	44.2	44.2	44.2	81	38.7	0	1	248	0.00	30.092 
17:50	44.1	44.1	44.1	82	39.0	0	1	248	0.00	30.092 
17:55	44.1	44.1	44.1	82	39.0	0	2	248	0.00	30.092 
18:00	44.1	44.1	44.1	82	39.0	0	1	248	0.00	30.089 
18:05	43.9	43.9	43.9	83	39.1	0	1	248	0.00	30.089 
18:10	43.9	43.9	43.9	83	39.1	0	1	248	0.00	30.089 
18:15	43.9	43.9	43.9	83	39.1	0	1	248	0.00	30.089 
18:20	43.9	43.9	43.9	83	39.1	0	1	248	0.00	30.089 
18:25	43.8	43.8	43.8	83	39.0	0	1	248	0.00	30.089 
18:30	43.8	43.8	43.8	83	39.0	0	1	248	0.00	30.090 
18:35	43.6	43.6	43.6	83	38.8	0	0	---	0.00	30.090 
18:40	43.6	43.6	43.6	83	38.8	0	1	248	0.00	30.090 
18:45	43.5	43.5	43.5	84	39.0	0	1	248	0.00	30.096 
18:50	43.2	43.2	43.2	84	38.7	0	0	---	0.00	30.096 
18:55	42.9	42.9	42.9	84	38.4	0	0	---	0.00	30.096 
19:00	42.8	42.8	42.8	84	38.3	0	1	248	0.00	30.101 
19:05	42.6	42.6	42.6	85	38.4	0	0	---	0.00	30.101 
19:10	42.5	42.5	42.5	85	38.3	0	0	---	0.00	30.101 
19:15	42.3	42.3	42.3	85	38.1	0	1	248	0.00	30.105 
19:20	42.2	42.2	42.2	85	38.0	0	0	---	0.00	30.105 
19:25	42.2	42.2	42.2	85	38.0	0	0	---	0.00	30.105 
19:30	42.1	42.1	42.1	86	38.2	0	0	---	0.00	30.109 
19:35	41.9	41.9	41.9	86	38.0	0	1	248	0.00	30.109 
19:40	41.9	41.9	41.9	86	38.0	0	0	---	0.00	30.109 
19:45	41.9	41.9	41.9	86	38.0	0	0	---	0.00	30.105 
19:50	41.9	41.9	41.9	86	38.0	0	0	---	0.00	30.105 
19:55	41.8	41.8	41.8	86	37.9	0	0	---	0.00	30.105 
20:00	41.6	41.6	41.6	86	37.7	0	0	---	0.00	30.107 
20:05	41.3	41.3	41.3	87	37.7	0	0	---	0.00	30.107 
20:10	41.5	41.5	41.5	87	37.9	0	1	248	0.00	30.107 
20:15	41.6	41.6	41.6	88	38.3	0	3	248	0.00	30.105 
20:20	41.9	41.9	41.9	88	38.6	0	1	248	0.00	30.105 
20:25	42.2	42.2	42.2	88	38.9	0	1	248	0.00	30.105 
20:30	42.5	42.5	42.5	88	39.2	0	1	248	0.00	30.100 
20:35	42.8	42.8	42.8	88	39.5	0	1	248	0.00	30.100 
20:40	42.9	42.9	42.9	87	39.3	0	1	248	0.00	30.100 
20:45	43.1	43.1	43.1	87	39.5	0	1	248	0.00	30.098 
20:50	43.1	43.1	43.1	86	39.2	0	1	248	0.00	30.098 
20:55	42.9	42.9	42.9	86	39.0	0	1	248	0.00	30.098 
21:00	42.9	42.9	42.9	85	38.7	0	1	248	0.00	30.101 
21:05	42.8	42.8	42.8	85	38.6	0	1	248	0.00	30.101 
21:10	42.6	42.6	42.6	85	38.4	0	1	248	0.00	30.101 
21:15	42.6	42.6	42.6	85	38.4	0	1	248	0.00	30.099 
21:20	42.6	42.6	42.6	85	38.4	0	1	248	0.00	30.099 
21:25	42.6	42.6	42.6	85	38.4	0	1	248	0.00	30.099 
21:30	42.8	42.8	42.8	85	38.6	0	1	248	0.00	30.103 
21:35	42.9	42.9	42.9	85	38.7	0	1	248	0.00	30.103 
21:40	43.1	43.1	43.1	84	38.6	0	1	248	0.00	30.103 
21:45	43.2	43.2	43.2	84	38.7	0	1	248	0.00	30.102 
21:50	43.3	43.3	43.3	84	38.8	0	2	248	0.00	30.102 
21:55	43.3	43.3	43.3	84	38.8	0	0	---	0.00	30.102 
22:00	43.5	43.5	43.5	84	39.0	0	1	248	0.00	30.103 
22:05	43.6	43.6	43.6	84	39.1	0	0	---	0.00	30.103 
22:10	43.8	43.8	43.8	83	39.0	0	1	248	0.00	30.103 
22:15	43.8	43.8	43.8	83	39.0	0	1	248	0.00	30.099 
22:20	43.9	43.9	43.9	83	39.1	0	3	22	0.00	30.099 
22:25	44.1	44.1	44.1	83	39.3	0	1	22	0.00	30.099 
22:30	44.2	44.2	44.2	82	39.1	0	2	270	0.00	30.100 
22:35	44.3	44.3	44.3	82	39.2	0	1	270	0.00	30.100 
22:40	44.5	44.5	44.5	82	39.4	0	2	270	0.00	30.100 
22:45	44.5	44.5	44.5	81	39.0	0	1	270	0.00	30.102 
22:50	44.6	44.6	44.6	81	39.1	0	2	270	0.00	30.102 
22:55	44.8	44.8	44.8	81	39.3	0	1	270	0.00	30.102 
23:00	44.8	44.8	44.8	81	39.3	0	1	270	0.00	30.109 
23:05	44.8	44.8	44.8	81	39.3	0	3	270	0.00	30.109 
23:10	44.8	44.8	44.8	81	39.3	0	2	270	0.00	30.109 
23:15	44.8	44.8	44.8	81	39.3	0	1	270	0.00	30.107 
23:20	44.8	44.8	44.8	81	39.3	0	2	270	0.00	30.107 
23:25	44.8	44.8	44.8	81	39.3	0	4	45	0.00	30.107 
23:30	44.8	44.8	44.8	81	39.3	0	1	45	0.00	30.110 
23:35	44.8	44.8	44.8	81	39.3	0	1	45	0.00	30.110 
23:40	44.8	44.8	44.8	80	39.0	0	1	45	0.00	30.110 
23:45	44.8	44.8	44.8	81	39.3	0	1	45	0.00	30.110 
23:50	44.8	44.8	44.8	81	39.3	0	2	45	0.00	30.110 
23:55	44.8	44.8	44.8	81	39.3	0	1	45	0.00	30.110 

CoCoRaHS
IN-AL-39
A2 Web Hosting
Creative Commons License
GoDaddy
search engine by freefind advanced

loaded 2018-11-17 05:34:28 • last modified 2010-11-18 10:43:29
Privacy PolicyDisclaimer
• wx.awcolley.com is powered by PmWiki v.2002016 •
• all content (unless otherwise noted) © 2018 A W Colley